Helios Highway — C6BO7 — position and weather

sailwx.info

Track history (hours):
 
Tides and Currents Weather Stations Pressure Air Temp Water Temp Dewpoint Dewpoint Depression Visibility Wind Speed Wind Dir Waves Ship Positions

Helios Highway

Last reported at 2018-Apr-22 21:50 UTC. Time now 2018-Apr-25 03:01 UTC.
Position N 23°20' E 119°52'.

Length 200 m; draft 9.6 m.

Type: Cargo ship. MMSI: 311000321.

Date/timePositionNaut miles runAvg speedWind from/ knotsBaromVisibWave heightAir tempDewpointWater temp
2018-Apr-22 21:50N 23°20' E 119°52'517.0
2018-Apr-22 21:30N 23°26' E 119°53'816.6
2018-Apr-22 21:00N 23°34' E 119°54'815.7
2018-Apr-22 20:30N 23°42' E 119°55'120 8.0
2018-Apr-22 05:31N 25°10' E 121°24'0 1.5
2018-Apr-22 05:29N 25°10' E 121°24'3 6.6
2018-Apr-22 05:00N 25°10' E 121°20'5 9.5
2018-Apr-22 04:29N 25°13' E 121°17'4 7.6
2018-Apr-22 04:00N 25°17' E 121°15'5 9.3
2018-Apr-22 03:29N 25°21' E 121°17'4 8.4
2018-Apr-22 03:00N 25°25' E 121°19'3616.4
2018-Apr-22 00:50N 25°56' E 121°37'516.1
2018-Apr-22 00:30N 25°59' E 121°43'816.2
2018-Apr-22 00:00N 26°02' E 121°51'816.8
2018-Apr-21 23:30N 26°05' E 121°59'917.2
2018-Apr-21 23:00N 26°09' E 122°08'86917.5
2018-Apr-19 21:18N 33°35' E 136°28'719.5
2018-Apr-19 20:56N 33°40' E 136°34'919.3
2018-Apr-19 20:27N 33°47' E 136°41'3318.2
2018-Apr-19 18:37N 34°15' E 137°04'718.3
2018-Apr-19 18:14N 34°22' E 137°04'1813.3
2018-Apr-19 16:55N 34°37' E 136°54'717.4
2018-Apr-19 16:30N 34°43' E 136°48'817.3
2018-Apr-19 16:00N 34°51' E 136°45'815.5
2018-Apr-19 15:30N 34°58' E 136°48'5 9.9
2018-Apr-19 15:01N 35°03' E 136°51'0 0.6
2018-Apr-19 14:30N 35°03' E 136°51'0 0.0
2018-Apr-19 14:00N 35°03' E 136°51'0 0.0
2018-Apr-19 13:30N 35°03' E 136°51'0 0.0
2018-Apr-19 13:00N 35°03' E 136°51'0 0.0
2018-Apr-19 12:30N 35°03' E 136°51'0 0.0
2018-Apr-19 12:00N 35°03' E 136°51'0 0.0
2018-Apr-19 11:30N 35°03' E 136°51'0 0.0
2018-Apr-19 11:00N 35°03' E 136°51'0 0.0
2018-Apr-19 10:30N 35°03' E 136°51'0 0.0
2018-Apr-19 10:00N 35°03' E 136°51'0 0.0
2018-Apr-19 09:30N 35°03' E 136°51'0 0.3
2018-Apr-19 09:00N 35°03' E 136°51'1 2.9
2018-Apr-19 08:30N 35°04' E 136°53'0 0.2
2018-Apr-19 08:00N 35°04' E 136°53'0 0.0
2018-Apr-19 07:27N 35°04' E 136°53'0 0.0
2018-Apr-19 07:00N 35°04' E 136°53'0 0.0
2018-Apr-19 06:30N 35°04' E 136°53'0 0.0
2018-Apr-19 06:00N 35°04' E 136°53'0 0.0
2018-Apr-19 05:30N 35°04' E 136°53'0 0.0
2018-Apr-19 05:00N 35°04' E 136°53'0 0.0
2018-Apr-19 04:30N 35°04' E 136°53'0 0.0
2018-Apr-19 04:00N 35°04' E 136°53'0 0.0
2018-Apr-19 03:30N 35°04' E 136°53'0 0.0
2018-Apr-19 03:00N 35°04' E 136°53'0 0.0
2018-Apr-19 02:30N 35°04' E 136°53'0 0.0
2018-Apr-19 02:00N 35°04' E 136°53'0 0.0
2018-Apr-19 01:30N 35°04' E 136°53'0 0.0
2018-Apr-19 01:00N 35°04' E 136°53'0 0.0
2018-Apr-19 00:30N 35°04' E 136°53'0 0.0
2018-Apr-19 00:00N 35°04' E 136°53'0 0.0
2018-Apr-18 23:30N 35°04' E 136°53'0 0.0
2018-Apr-18 23:00N 35°04' E 136°53'0 0.0
2018-Apr-18 22:30N 35°04' E 136°53'0 0.1
2018-Apr-18 22:00N 35°04' E 136°53'2 4.0
2018-Apr-18 21:30N 35°02' E 136°51'510.5
2018-Apr-18 21:01N 34°58' E 136°48'4 8.1
2018-Apr-18 20:30N 34°55' E 136°45'0 0.4
2018-Apr-18 20:00N 34°55' E 136°45'0 0.0
2018-Apr-18 19:30N 34°55' E 136°45'0 0.0
2018-Apr-18 19:00N 34°55' E 136°45'0 0.0
2018-Apr-18 18:30N 34°55' E 136°45'0 0.1
2018-Apr-18 18:00N 34°55' E 136°45'0 0.1
2018-Apr-18 17:30N 34°55' E 136°45'0 0.0
2018-Apr-18 17:00N 34°55' E 136°45'0 0.0
2018-Apr-18 16:30N 34°55' E 136°45'0 0.0
2018-Apr-18 16:00N 34°55' E 136°45'0 0.0
2018-Apr-18 15:30N 34°55' E 136°45'0 0.0
2018-Apr-18 15:00N 34°55' E 136°45'0 0.0
2018-Apr-18 14:30N 34°55' E 136°45'0 0.0
2018-Apr-18 14:00N 34°55' E 136°45'0 0.0
2018-Apr-18 13:30N 34°55' E 136°45'0 0.0
2018-Apr-18 13:00N 34°55' E 136°45'0 0.0
2018-Apr-18 12:30N 34°55' E 136°45'0 0.0
2018-Apr-18 12:00N 34°55' E 136°45'0 0.0
2018-Apr-18 11:30N 34°55' E 136°45'0 0.0
2018-Apr-18 11:00N 34°55' E 136°45'0 0.0
2018-Apr-18 10:30N 34°55' E 136°45'0 0.0
2018-Apr-18 10:00N 34°55' E 136°45'0 0.0
2018-Apr-18 09:30N 34°55' E 136°45'0 0.0
2018-Apr-18 09:00N 34°55' E 136°45'0 0.0
2018-Apr-18 08:30N 34°55' E 136°45'0 0.0
2018-Apr-18 08:00N 34°55' E 136°45'0 0.0
2018-Apr-18 07:30N 34°55' E 136°45'0 0.0
2018-Apr-18 07:00N 34°55' E 136°45'0 0.0
2018-Apr-18 06:30N 34°55' E 136°45'0 0.1
2018-Apr-18 06:00N 34°55' E 136°45'0 0.0
2018-Apr-18 05:30N 34°55' E 136°45'0 0.0
2018-Apr-18 05:00N 34°55' E 136°45'0 0.0
2018-Apr-18 04:30N 34°55' E 136°45'0 0.0
2018-Apr-18 04:00N 34°55' E 136°45'0 0.0
2018-Apr-18 03:30N 34°55' E 136°45'0 0.1
2018-Apr-18 03:00N 34°55' E 136°45'0 0.0
2018-Apr-18 02:30N 34°55' E 136°45'0 0.1
2018-Apr-18 02:00N 34°55' E 136°45'0 0.1
2018-Apr-18 01:30N 34°55' E 136°45'0 0.0
2018-Apr-18 01:00N 34°55' E 136°45'0 0.1
2018-Apr-18 00:30N 34°55' E 136°45'0 0.0
2018-Apr-18 00:00N 34°55' E 136°45'0 0.0
2018-Apr-17 23:30N 34°55' E 136°45'0 0.0
2018-Apr-17 23:00N 34°55' E 136°45'0 0.0
2018-Apr-17 22:30N 34°55' E 136°45'0 0.0
2018-Apr-17 22:00N 34°55' E 136°45'0 0.0
2018-Apr-17 21:30N 34°55' E 136°45'0 0.1
2018-Apr-17 21:00N 34°55' E 136°45'0 0.0
2018-Apr-17 20:30N 34°55' E 136°45'0 0.0
2018-Apr-17 20:00N 34°55' E 136°45'0 0.0
2018-Apr-17 19:30N 34°55' E 136°45'0 0.0
2018-Apr-17 19:00N 34°55' E 136°45'0 0.0
2018-Apr-17 18:30N 34°55' E 136°45'0 0.0
2018-Apr-17 18:00N 34°55' E 136°45'0 0.0
2018-Apr-17 17:30N 34°55' E 136°45'0 0.0
2018-Apr-17 16:57N 34°55' E 136°45'0 0.0
2018-Apr-17 16:30N 34°55' E 136°45'0 0.0
2018-Apr-17 16:00N 34°55' E 136°45'0 0.0
2018-Apr-17 15:30N 34°55' E 136°45'0 0.0
2018-Apr-17 15:00N 34°55' E 136°45'0 0.0
2018-Apr-17 14:30N 34°55' E 136°45'0 0.1
2018-Apr-17 14:00N 34°55' E 136°45'0 0.0
2018-Apr-17 13:30N 34°55' E 136°45'0 0.0
2018-Apr-17 13:00N 34°55' E 136°45'0 0.0
2018-Apr-17 12:30N 34°55' E 136°45'0 0.0
2018-Apr-17 12:00N 34°55' E 136°45'0 0.1
2018-Apr-17 11:30N 34°55' E 136°45'0 0.0
2018-Apr-17 11:00N 34°55' E 136°45'0 0.1
2018-Apr-17 10:30N 34°55' E 136°45'0 0.1
2018-Apr-17 10:00N 34°55' E 136°45'0 0.1
2018-Apr-17 09:30N 34°55' E 136°45'0 0.1
2018-Apr-17 09:00N 34°55' E 136°45'4 8.3
2018-Apr-17 08:30N 34°58' E 136°48'510.8
2018-Apr-17 08:00N 35°02' E 136°52'2 3.0
2018-Apr-17 07:28N 35°04' E 136°53'0 0.1
2018-Apr-17 06:58N 35°04' E 136°53'0 0.1
2018-Apr-17 06:28N 35°04' E 136°53'0 0.0
2018-Apr-17 05:58N 35°04' E 136°53'0 0.0
2018-Apr-17 05:28N 35°04' E 136°53'0 0.0
2018-Apr-17 04:58N 35°04' E 136°53'0 0.0
2018-Apr-17 04:28N 35°04' E 136°53'0 0.0
2018-Apr-17 03:58N 35°04' E 136°53'0 0.0
2018-Apr-17 03:28N 35°04' E 136°53'0 0.0
2018-Apr-17 02:58N 35°04' E 136°53'0 0.0
2018-Apr-17 02:28N 35°04' E 136°53'0 0.0
2018-Apr-17 01:58N 35°04' E 136°53'0 0.0
2018-Apr-17 01:28N 35°04' E 136°53'0 0.0
2018-Apr-17 00:58N 35°04' E 136°53'0 0.0
2018-Apr-17 00:28N 35°04' E 136°53'0 0.0
2018-Apr-16 23:58N 35°04' E 136°53'0 0.0
2018-Apr-16 23:28N 35°04' E 136°53'0 0.0
2018-Apr-16 22:58N 35°04' E 136°53'0 0.0
2018-Apr-16 22:28N 35°04' E 136°53'0 0.1
2018-Apr-16 22:00N 35°03' E 136°53'2 4.1
2018-Apr-16 21:30N 35°02' E 136°51'611.8
2018-Apr-16 21:00N 34°57' E 136°47'611.3
2018-Apr-16 20:30N 34°52' E 136°46'611.5
2018-Apr-16 20:00N 34°46' E 136°48'612.5
2018-Apr-16 19:30N 34°40' E 136°51'713.9
2018-Apr-16 19:00N 34°36' E 136°58'613.0
2018-Apr-16 18:30N 34°32' E 137°04'4 6.6
2018-Apr-16 17:53N 34°30' E 137°08'3 6.6
2018-Apr-16 17:25N 34°28' E 137°12'3 6.0
2018-Apr-16 17:00N 34°27' E 137°14'3 5.4
2018-Apr-16 16:29N 34°25' E 137°17'17 7.1
2018-Apr-16 14:05N 34°24' E 137°38'1 8.1
2018-Apr-16 14:00N 34°24' E 137°38'5 8.1
2018-Apr-16 13:27N 34°25' E 137°44'4 7.8
2018-Apr-16 12:57N 34°26' E 137°48'4 7.8
2018-Apr-16 12:24N 34°27' E 137°54'5 7.6
2018-Apr-16 11:46N 34°27' E 137°59'2 7.7
2018-Apr-16 11:28N 34°27' E 138°02'5 7.9
2018-Apr-16 10:54N 34°27' E 138°08'3 7.6
2018-Apr-16 10:29N 34°28' E 138°11'4 7.2
2018-Apr-16 09:54N 34°28' E 138°17'3 7.4
2018-Apr-16 09:27N 34°28' E 138°21'4 7.6
2018-Apr-16 08:54N 34°28' E 138°26'3 8.0
2018-Apr-16 08:29N 34°28' E 138°30'4 8.3
2018-Apr-16 07:58N 34°27' E 138°35'4 8.3
2018-Apr-16 07:28N 34°28' E 138°40'4 7.9
2018-Apr-16 06:57N 34°28' E 138°45'5 7.9
2018-Apr-16 06:18N 34°28' E 138°51'2 7.8
2018-Apr-16 06:00N 34°28' E 138°54'4 7.8
2018-Apr-16 05:30N 34°29' E 138°58'4 7.8
2018-Apr-16 05:00N 34°30' E 139°03'4 7.5
2018-Apr-16 04:30N 34°32' E 139°07'712.6
2018-Apr-16 03:58N 34°35' E 139°14'715.4
2018-Apr-16 03:30N 34°37' E 139°22'815.8
2018-Apr-16 02:58N 34°39' E 139°32'816.1
2018-Apr-16 02:28N 34°41' E 139°41'916.6
2018-Apr-16 01:57N 34°44' E 139°52'816.4
2018-Apr-16 01:27N 34°46' E 140°01'716.1
2018-Apr-16 01:00N 34°48' E 140°10'1016.3
2018-Apr-16 00:25N 34°51' E 140°21'  
Track history (hours):
 
Tides and Currents Weather Stations Pressure Air Temp Water Temp Dewpoint Dewpoint Depression Visibility Wind Speed Wind Dir Waves Ship Positions

Helios Highway

Last reported at 2018-Apr-22 21:50 UTC. Time now 2018-Apr-25 03:01 UTC.
Position N 23°20' E 119°52'.

Length 200 m; draft 9.6 m.

Type: Cargo ship. MMSI: 311000321.

Date/timePositionNaut miles runAvg speedWind from/ knotsBaromVisibWave heightAir tempDewpointWater temp
2018-Apr-22 21:50N 23°20' E 119°52'517.0
2018-Apr-22 21:30N 23°26' E 119°53'816.6
2018-Apr-22 21:00N 23°34' E 119°54'815.7
2018-Apr-22 20:30N 23°42' E 119°55'120 8.0
2018-Apr-22 05:31N 25°10' E 121°24'0 1.5
2018-Apr-22 05:29N 25°10' E 121°24'3 6.6
2018-Apr-22 05:00N 25°10' E 121°20'5 9.5
2018-Apr-22 04:29N 25°13' E 121°17'4 7.6
2018-Apr-22 04:00N 25°17' E 121°15'5 9.3
2018-Apr-22 03:29N 25°21' E 121°17'4 8.4
2018-Apr-22 03:00N 25°25' E 121°19'3616.4
2018-Apr-22 00:50N 25°56' E 121°37'516.1
2018-Apr-22 00:30N 25°59' E 121°43'816.2
2018-Apr-22 00:00N 26°02' E 121°51'816.8
2018-Apr-21 23:30N 26°05' E 121°59'917.2
2018-Apr-21 23:00N 26°09' E 122°08'86917.5
2018-Apr-19 21:18N 33°35' E 136°28'719.5
2018-Apr-19 20:56N 33°40' E 136°34'919.3
2018-Apr-19 20:27N 33°47' E 136°41'3318.2
2018-Apr-19 18:37N 34°15' E 137°04'718.3
2018-Apr-19 18:14N 34°22' E 137°04'1813.3
2018-Apr-19 16:55N 34°37' E 136°54'717.4
2018-Apr-19 16:30N 34°43' E 136°48'817.3
2018-Apr-19 16:00N 34°51' E 136°45'815.5
2018-Apr-19 15:30N 34°58' E 136°48'5 9.9
2018-Apr-19 15:01N 35°03' E 136°51'0 0.6
2018-Apr-19 14:30N 35°03' E 136°51'0 0.0
2018-Apr-19 14:00N 35°03' E 136°51'0 0.0
2018-Apr-19 13:30N 35°03' E 136°51'0 0.0
2018-Apr-19 13:00N 35°03' E 136°51'0 0.0
2018-Apr-19 12:30N 35°03' E 136°51'0 0.0
2018-Apr-19 12:00N 35°03' E 136°51'0 0.0
2018-Apr-19 11:30N 35°03' E 136°51'0 0.0
2018-Apr-19 11:00N 35°03' E 136°51'0 0.0
2018-Apr-19 10:30N 35°03' E 136°51'0 0.0
2018-Apr-19 10:00N 35°03' E 136°51'0 0.0
2018-Apr-19 09:30N 35°03' E 136°51'0 0.3
2018-Apr-19 09:00N 35°03' E 136°51'1 2.9
2018-Apr-19 08:30N 35°04' E 136°53'0 0.2
2018-Apr-19 08:00N 35°04' E 136°53'0 0.0
2018-Apr-19 07:27N 35°04' E 136°53'0 0.0
2018-Apr-19 07:00N 35°04' E 136°53'0 0.0
2018-Apr-19 06:30N 35°04' E 136°53'0 0.0
2018-Apr-19 06:00N 35°04' E 136°53'0 0.0
2018-Apr-19 05:30N 35°04' E 136°53'0 0.0
2018-Apr-19 05:00N 35°04' E 136°53'0 0.0
2018-Apr-19 04:30N 35°04' E 136°53'0 0.0
2018-Apr-19 04:00N 35°04' E 136°53'0 0.0
2018-Apr-19 03:30N 35°04' E 136°53'0 0.0
2018-Apr-19 03:00N 35°04' E 136°53'0 0.0
2018-Apr-19 02:30N 35°04' E 136°53'0 0.0
2018-Apr-19 02:00N 35°04' E 136°53'0 0.0
2018-Apr-19 01:30N 35°04' E 136°53'0 0.0
2018-Apr-19 01:00N 35°04' E 136°53'0 0.0
2018-Apr-19 00:30N 35°04' E 136°53'0 0.0
2018-Apr-19 00:00N 35°04' E 136°53'0 0.0
2018-Apr-18 23:30N 35°04' E 136°53'0 0.0
2018-Apr-18 23:00N 35°04' E 136°53'0 0.0
2018-Apr-18 22:30N 35°04' E 136°53'0 0.1
2018-Apr-18 22:00N 35°04' E 136°53'2 4.0
2018-Apr-18 21:30N 35°02' E 136°51'510.5
2018-Apr-18 21:01N 34°58' E 136°48'4 8.1
2018-Apr-18 20:30N 34°55' E 136°45'0 0.4
2018-Apr-18 20:00N 34°55' E 136°45'0 0.0
2018-Apr-18 19:30N 34°55' E 136°45'0 0.0
2018-Apr-18 19:00N 34°55' E 136°45'0 0.0
2018-Apr-18 18:30N 34°55' E 136°45'0 0.1
2018-Apr-18 18:00N 34°55' E 136°45'0 0.1
2018-Apr-18 17:30N 34°55' E 136°45'0 0.0
2018-Apr-18 17:00N 34°55' E 136°45'0 0.0
2018-Apr-18 16:30N 34°55' E 136°45'0 0.0
2018-Apr-18 16:00N 34°55' E 136°45'0 0.0
2018-Apr-18 15:30N 34°55' E 136°45'0 0.0
2018-Apr-18 15:00N 34°55' E 136°45'0 0.0
2018-Apr-18 14:30N 34°55' E 136°45'0 0.0
2018-Apr-18 14:00N 34°55' E 136°45'0 0.0
2018-Apr-18 13:30N 34°55' E 136°45'0 0.0
2018-Apr-18 13:00N 34°55' E 136°45'0 0.0
2018-Apr-18 12:30N 34°55' E 136°45'0 0.0
2018-Apr-18 12:00N 34°55' E 136°45'0 0.0
2018-Apr-18 11:30N 34°55' E 136°45'0 0.0
2018-Apr-18 11:00N 34°55' E 136°45'0 0.0
2018-Apr-18 10:30N 34°55' E 136°45'0 0.0
2018-Apr-18 10:00N 34°55' E 136°45'0 0.0
2018-Apr-18 09:30N 34°55' E 136°45'0 0.0
2018-Apr-18 09:00N 34°55' E 136°45'0 0.0
2018-Apr-18 08:30N 34°55' E 136°45'0 0.0
2018-Apr-18 08:00N 34°55' E 136°45'0 0.0
2018-Apr-18 07:30N 34°55' E 136°45'0 0.0
2018-Apr-18 07:00N 34°55' E 136°45'0 0.0
2018-Apr-18 06:30N 34°55' E 136°45'0 0.1
2018-Apr-18 06:00N 34°55' E 136°45'0 0.0
2018-Apr-18 05:30N 34°55' E 136°45'0 0.0
2018-Apr-18 05:00N 34°55' E 136°45'0 0.0
2018-Apr-18 04:30N 34°55' E 136°45'0 0.0
2018-Apr-18 04:00N 34°55' E 136°45'0 0.0
2018-Apr-18 03:30N 34°55' E 136°45'0 0.1
2018-Apr-18 03:00N 34°55' E 136°45'0 0.0
2018-Apr-18 02:30N 34°55' E 136°45'0 0.1
2018-Apr-18 02:00N 34°55' E 136°45'0 0.1
2018-Apr-18 01:30N 34°55' E 136°45'0 0.0
2018-Apr-18 01:00N 34°55' E 136°45'0 0.1
2018-Apr-18 00:30N 34°55' E 136°45'0 0.0
2018-Apr-18 00:00N 34°55' E 136°45'0 0.0
2018-Apr-17 23:30N 34°55' E 136°45'0 0.0
2018-Apr-17 23:00N 34°55' E 136°45'0 0.0
2018-Apr-17 22:30N 34°55' E 136°45'0 0.0
2018-Apr-17 22:00N 34°55' E 136°45'0 0.0
2018-Apr-17 21:30N 34°55' E 136°45'0 0.1
2018-Apr-17 21:00N 34°55' E 136°45'0 0.0
2018-Apr-17 20:30N 34°55' E 136°45'0 0.0
2018-Apr-17 20:00N 34°55' E 136°45'0 0.0
2018-Apr-17 19:30N 34°55' E 136°45'0 0.0
2018-Apr-17 19:00N 34°55' E 136°45'0 0.0
2018-Apr-17 18:30N 34°55' E 136°45'0 0.0
2018-Apr-17 18:00N 34°55' E 136°45'0 0.0
2018-Apr-17 17:30N 34°55' E 136°45'0 0.0
2018-Apr-17 16:57N 34°55' E 136°45'0 0.0
2018-Apr-17 16:30N 34°55' E 136°45'0 0.0
2018-Apr-17 16:00N 34°55' E 136°45'0 0.0
2018-Apr-17 15:30N 34°55' E 136°45'0 0.0
2018-Apr-17 15:00N 34°55' E 136°45'0 0.0
2018-Apr-17 14:30N 34°55' E 136°45'0 0.1
2018-Apr-17 14:00N 34°55' E 136°45'0 0.0
2018-Apr-17 13:30N 34°55' E 136°45'0 0.0
2018-Apr-17 13:00N 34°55' E 136°45'0 0.0
2018-Apr-17 12:30N 34°55' E 136°45'0 0.0
2018-Apr-17 12:00N 34°55' E 136°45'0 0.1
2018-Apr-17 11:30N 34°55' E 136°45'0 0.0
2018-Apr-17 11:00N 34°55' E 136°45'0 0.1
2018-Apr-17 10:30N 34°55' E 136°45'0 0.1
2018-Apr-17 10:00N 34°55' E 136°45'0 0.1
2018-Apr-17 09:30N 34°55' E 136°45'0 0.1
2018-Apr-17 09:00N 34°55' E 136°45'4 8.3
2018-Apr-17 08:30N 34°58' E 136°48'510.8
2018-Apr-17 08:00N 35°02' E 136°52'2 3.0
2018-Apr-17 07:28N 35°04' E 136°53'0 0.1
2018-Apr-17 06:58N 35°04' E 136°53'0 0.1
2018-Apr-17 06:28N 35°04' E 136°53'0 0.0
2018-Apr-17 05:58N 35°04' E 136°53'0 0.0
2018-Apr-17 05:28N 35°04' E 136°53'0 0.0
2018-Apr-17 04:58N 35°04' E 136°53'0 0.0
2018-Apr-17 04:28N 35°04' E 136°53'0 0.0
2018-Apr-17 03:58N 35°04' E 136°53'0 0.0
2018-Apr-17 03:28N 35°04' E 136°53'0 0.0
2018-Apr-17 02:58N 35°04' E 136°53'0 0.0
2018-Apr-17 02:28N 35°04' E 136°53'0 0.0
2018-Apr-17 01:58N 35°04' E 136°53'0 0.0
2018-Apr-17 01:28N 35°04' E 136°53'0 0.0
2018-Apr-17 00:58N 35°04' E 136°53'0 0.0
2018-Apr-17 00:28N 35°04' E 136°53'0 0.0
2018-Apr-16 23:58N 35°04' E 136°53'0 0.0
2018-Apr-16 23:28N 35°04' E 136°53'0 0.0
2018-Apr-16 22:58N 35°04' E 136°53'0 0.0
2018-Apr-16 22:28N 35°04' E 136°53'0 0.1
2018-Apr-16 22:00N 35°03' E 136°53'2 4.1
2018-Apr-16 21:30N 35°02' E 136°51'611.8
2018-Apr-16 21:00N 34°57' E 136°47'611.3
2018-Apr-16 20:30N 34°52' E 136°46'611.5
2018-Apr-16 20:00N 34°46' E 136°48'612.5
2018-Apr-16 19:30N 34°40' E 136°51'713.9
2018-Apr-16 19:00N 34°36' E 136°58'613.0
2018-Apr-16 18:30N 34°32' E 137°04'4 6.6
2018-Apr-16 17:53N 34°30' E 137°08'3 6.6
2018-Apr-16 17:25N 34°28' E 137°12'3 6.0
2018-Apr-16 17:00N 34°27' E 137°14'3 5.4
2018-Apr-16 16:29N 34°25' E 137°17'17 7.1
2018-Apr-16 14:05N 34°24' E 137°38'1 8.1
2018-Apr-16 14:00N 34°24' E 137°38'5 8.1
2018-Apr-16 13:27N 34°25' E 137°44'4 7.8
2018-Apr-16 12:57N 34°26' E 137°48'4 7.8
2018-Apr-16 12:24N 34°27' E 137°54'5 7.6
2018-Apr-16 11:46N 34°27' E 137°59'2 7.7
2018-Apr-16 11:28N 34°27' E 138°02'5 7.9
2018-Apr-16 10:54N 34°27' E 138°08'3 7.6
2018-Apr-16 10:29N 34°28' E 138°11'4 7.2
2018-Apr-16 09:54N 34°28' E 138°17'3 7.4
2018-Apr-16 09:27N 34°28' E 138°21'4 7.6
2018-Apr-16 08:54N 34°28' E 138°26'3 8.0
2018-Apr-16 08:29N 34°28' E 138°30'4 8.3
2018-Apr-16 07:58N 34°27' E 138°35'4 8.3
2018-Apr-16 07:28N 34°28' E 138°40'4 7.9
2018-Apr-16 06:57N 34°28' E 138°45'5 7.9
2018-Apr-16 06:18N 34°28' E 138°51'2 7.8
2018-Apr-16 06:00N 34°28' E 138°54'4 7.8
2018-Apr-16 05:30N 34°29' E 138°58'4 7.8
2018-Apr-16 05:00N 34°30' E 139°03'4 7.5
2018-Apr-16 04:30N 34°32' E 139°07'712.6
2018-Apr-16 03:58N 34°35' E 139°14'715.4
2018-Apr-16 03:30N 34°37' E 139°22'815.8
2018-Apr-16 02:58N 34°39' E 139°32'816.1
2018-Apr-16 02:28N 34°41' E 139°41'916.6
2018-Apr-16 01:57N 34°44' E 139°52'816.4
2018-Apr-16 01:27N 34°46' E 140°01'716.1
2018-Apr-16 01:00N 34°48' E 140°10'1016.3
2018-Apr-16 00:25N 34°51' E 140°21'  

Dump ship's entire track history